createdAt,value
2023-03-26T00:01:23.872Z,16.52
2023-03-26T00:03:55.237Z,16.51
2023-03-26T00:06:27.309Z,16.48
2023-03-26T00:08:55.745Z,16.44
2023-03-26T00:11:24.501Z,16.44
2023-03-26T00:13:53.705Z,16.40
2023-03-26T00:16:21.031Z,16.40
2023-03-26T00:18:49.048Z,16.37
2023-03-26T00:21:18.235Z,16.32
2023-03-26T00:23:45.410Z,16.32
2023-03-26T00:26:12.919Z,16.30
2023-03-26T00:28:41.960Z,16.27
2023-03-26T00:31:12.297Z,16.29
2023-03-26T00:33:40.851Z,16.26
2023-03-26T00:36:11.979Z,16.22
2023-03-26T00:38:39.464Z,16.22
2023-03-26T00:41:17.648Z,16.19
2023-03-26T00:43:49.189Z,16.18
2023-03-26T00:46:18.096Z,16.15
2023-03-26T00:48:46.736Z,16.16
2023-03-26T00:51:16.406Z,16.12
2023-03-26T00:53:45.572Z,16.13
2023-03-26T00:56:13.562Z,16.09
2023-03-26T00:58:40.897Z,16.12
2023-03-26T01:01:13.662Z,16.08
2023-03-26T01:03:50.167Z,16.07
2023-03-26T01:06:27.940Z,16.07
2023-03-26T01:09:00.144Z,16.02
2023-03-26T01:11:30.819Z,16.01
2023-03-26T01:14:04.541Z,16.01
2023-03-26T01:16:42.081Z,16.00
2023-03-26T01:19:21.389Z,15.95
2023-03-26T01:21:48.969Z,15.93
2023-03-26T01:24:16.201Z,15.94
2023-03-26T01:27:04.433Z,15.87
2023-03-26T01:29:56.756Z,15.85
2023-03-26T01:32:50.514Z,15.87
2023-03-26T01:35:35.236Z,15.85
2023-03-26T01:38:16.963Z,15.84
2023-03-26T01:41:01.954Z,15.82
2023-03-26T01:43:50.846Z,15.83
2023-03-26T01:46:19.526Z,15.84
2023-03-26T01:48:48.153Z,15.83
2023-03-26T01:51:27.917Z,15.81
2023-03-26T01:53:57.020Z,15.81
2023-03-26T01:56:38.157Z,15.80
2023-03-26T01:59:05.063Z,15.80
2023-03-26T02:01:45.080Z,15.80
2023-03-26T02:04:31.999Z,15.79
2023-03-26T02:07:02.084Z,15.77
2023-03-26T02:09:35.853Z,15.76
2023-03-26T02:12:04.431Z,15.76
2023-03-26T02:14:32.032Z,15.75
2023-03-26T02:17:00.803Z,15.72
2023-03-26T02:19:27.537Z,15.73
2023-03-26T02:21:59.837Z,15.70
2023-03-26T02:24:28.119Z,15.69
2023-03-26T02:26:58.195Z,15.68
2023-03-26T02:29:26.932Z,15.68
2023-03-26T02:31:54.310Z,15.66
2023-03-26T02:34:21.059Z,15.64
2023-03-26T02:36:53.296Z,15.64
2023-03-26T02:39:20.906Z,15.63
2023-03-26T02:42:01.859Z,15.63
2023-03-26T02:44:31.308Z,15.62
2023-03-26T02:46:58.317Z,15.61
2023-03-26T02:49:45.363Z,15.60
2023-03-26T02:52:18.731Z,15.59
2023-03-26T02:54:47.778Z,15.59
2023-03-26T02:57:20.182Z,15.57
2023-03-26T03:00:15.012Z,15.57
2023-03-26T03:02:48.640Z,15.56
2023-03-26T03:05:32.739Z,15.55
2023-03-26T03:08:21.459Z,15.55
2023-03-26T03:11:24.878Z,15.51
2023-03-26T03:13:53.282Z,15.52
2023-03-26T03:16:26.575Z,15.51
2023-03-26T03:18:57.794Z,15.50
2023-03-26T03:21:34.367Z,15.51
2023-03-26T03:24:01.227Z,15.52
2023-03-26T03:26:31.921Z,15.52
2023-03-26T03:29:09.571Z,15.51
2023-03-26T03:31:36.893Z,15.47
2023-03-26T03:34:14.106Z,15.52
2023-03-26T03:36:48.752Z,15.52
2023-03-26T03:39:34.928Z,15.52
2023-03-26T03:42:01.958Z,15.56
2023-03-26T03:44:29.072Z,15.50
2023-03-26T03:46:56.987Z,15.51
2023-03-26T03:49:23.995Z,15.49
2023-03-26T03:51:51.186Z,15.48
2023-03-26T03:54:28.313Z,15.46
2023-03-26T03:57:18.788Z,15.48
2023-03-26T04:00:01.538Z,15.49
2023-03-26T04:02:43.156Z,15.50
2023-03-26T04:05:11.685Z,15.50
2023-03-26T04:07:45.177Z,15.47
2023-03-26T04:10:23.741Z,15.48
2023-03-26T04:13:15.027Z,15.47
2023-03-26T04:16:01.311Z,15.43
2023-03-26T04:18:30.193Z,15.44
2023-03-26T04:21:03.358Z,15.43
2023-03-26T04:23:32.036Z,15.40
2023-03-26T04:26:20.011Z,15.41
2023-03-26T04:29:12.839Z,15.44
2023-03-26T04:31:39.933Z,15.41
2023-03-26T04:34:14.182Z,15.45
2023-03-26T04:36:54.896Z,15.39
2023-03-26T04:39:29.190Z,15.40
2023-03-26T04:42:15.517Z,15.38
2023-03-26T04:44:55.127Z,15.43
2023-03-26T04:47:22.412Z,15.40
2023-03-26T04:49:49.876Z,15.38
2023-03-26T04:52:17.696Z,15.37
2023-03-26T04:55:13.872Z,15.37
2023-03-26T04:57:46.233Z,15.36
2023-03-26T05:00:28.473Z,15.34
2023-03-26T05:03:01.631Z,15.36
2023-03-26T05:05:29.480Z,15.34
2023-03-26T05:07:59.073Z,15.34
2023-03-26T05:10:26.116Z,15.35
2023-03-26T05:13:05.136Z,15.33
2023-03-26T05:15:35.601Z,15.33
2023-03-26T05:18:08.942Z,15.32
2023-03-26T05:20:46.981Z,15.33
2023-03-26T05:23:32.326Z,15.29
2023-03-26T05:26:12.734Z,15.29
2023-03-26T05:28:40.646Z,15.29
2023-03-26T05:31:39.811Z,15.30
2023-03-26T05:34:06.840Z,15.27
2023-03-26T05:36:33.917Z,15.29
2023-03-26T05:39:08.625Z,15.28
2023-03-26T05:42:04.702Z,15.26
2023-03-26T05:44:44.303Z,15.26
2023-03-26T05:47:18.875Z,15.26
2023-03-26T05:49:46.939Z,15.25
2023-03-26T05:52:16.177Z,15.22
2023-03-26T05:55:01.512Z,15.23
2023-03-26T05:57:47.043Z,15.24
2023-03-26T06:00:39.669Z,15.21
2023-03-26T06:03:12.731Z,15.18
2023-03-26T06:05:48.682Z,15.20
2023-03-26T06:08:37.325Z,15.20
2023-03-26T06:11:08.062Z,15.19
2023-03-26T06:13:37.742Z,15.20
2023-03-26T06:16:05.336Z,15.20
2023-03-26T06:18:34.999Z,15.19
2023-03-26T06:21:37.071Z,15.17
2023-03-26T06:24:16.502Z,15.15
2023-03-26T06:27:01.980Z,15.16
2023-03-26T06:29:49.138Z,15.15
2023-03-26T06:32:34.410Z,15.13
2023-03-26T06:35:14.201Z,15.14
2023-03-26T06:37:42.035Z,15.14
2023-03-26T06:40:09.496Z,15.10
2023-03-26T06:43:08.738Z,15.13
2023-03-26T06:45:52.672Z,15.14
2023-03-26T06:48:37.831Z,15.11
2023-03-26T06:51:13.658Z,15.11
2023-03-26T06:53:59.008Z,15.12
2023-03-26T06:56:44.889Z,15.09
2023-03-26T06:59:32.236Z,15.09
2023-03-26T07:02:17.629Z,15.08
2023-03-26T07:05:02.860Z,15.06
2023-03-26T07:07:48.330Z,15.08
2023-03-26T07:10:33.985Z,15.06
2023-03-26T07:13:12.345Z,15.06
2023-03-26T07:15:57.609Z,15.04
2023-03-26T07:18:29.938Z,15.04
2023-03-26T07:20:57.870Z,15.04
2023-03-26T07:23:28.572Z,15.05
2023-03-26T07:26:46.274Z,15.05
2023-03-26T07:29:24.951Z,15.03
2023-03-26T07:32:28.805Z,15.03
2023-03-26T07:35:19.236Z,15.02
2023-03-26T07:38:39.970Z,14.99
2023-03-26T07:41:49.870Z,14.99
2023-03-26T07:44:55.673Z,15.04
2023-03-26T07:47:53.791Z,15.02
2023-03-26T07:50:41.405Z,15.02
2023-03-26T07:53:23.427Z,15.00
2023-03-26T07:56:26.017Z,14.97
2023-03-26T07:59:26.703Z,14.97
2023-03-26T08:02:27.236Z,14.93
2023-03-26T08:05:26.191Z,14.90
2023-03-26T08:07:59.035Z,14.91
2023-03-26T08:10:39.490Z,14.92
2023-03-26T08:13:26.744Z,14.87
2023-03-26T08:16:19.446Z,14.88
2023-03-26T08:19:00.505Z,14.87
2023-03-26T08:21:34.895Z,14.85
2023-03-26T08:24:13.174Z,14.83
2023-03-26T08:27:16.123Z,14.83
2023-03-26T08:29:50.125Z,14.85
2023-03-26T08:32:18.925Z,14.83
2023-03-26T08:34:46.358Z,14.81
2023-03-26T08:37:13.383Z,14.81
2023-03-26T08:39:41.908Z,14.81
2023-03-26T08:42:17.221Z,14.81
2023-03-26T08:45:06.606Z,14.81
2023-03-26T08:48:03.166Z,14.80
2023-03-26T08:50:48.424Z,14.77
2023-03-26T08:53:30.001Z,14.75
2023-03-26T08:56:21.461Z,14.75
2023-03-26T08:59:13.680Z,14.75
2023-03-26T09:02:01.848Z,14.74
2023-03-26T09:04:31.252Z,14.73
2023-03-26T09:07:06.824Z,14.73
2023-03-26T09:09:58.639Z,14.72
2023-03-26T09:12:52.090Z,14.74
2023-03-26T09:15:55.864Z,14.69
2023-03-26T09:18:41.508Z,14.70
2023-03-26T09:21:46.149Z,14.68
2023-03-26T09:24:37.547Z,14.67
2023-03-26T09:27:16.366Z,14.67
2023-03-26T09:30:00.812Z,14.69
2023-03-26T09:32:39.671Z,14.68
2023-03-26T09:35:15.797Z,14.72
2023-03-26T09:37:57.586Z,14.75
2023-03-26T09:40:55.187Z,14.79
2023-03-26T09:43:37.432Z,14.84
2023-03-26T09:46:50.454Z,14.90
2023-03-26T09:49:44.570Z,15.08
2023-03-26T09:52:29.154Z,15.17
2023-03-26T09:55:21.743Z,15.31
2023-03-26T09:58:06.166Z,15.45
2023-03-26T10:00:52.721Z,15.56
2023-03-26T10:03:41.268Z,15.70
2023-03-26T10:06:23.188Z,15.79
2023-03-26T10:09:01.644Z,15.87
2023-03-26T10:11:37.471Z,15.89
2023-03-26T10:14:10.797Z,15.99
2023-03-26T10:17:01.436Z,16.04
2023-03-26T10:19:43.553Z,16.12
2023-03-26T10:22:27.261Z,16.15
2023-03-26T10:25:11.916Z,16.18
2023-03-26T10:27:51.591Z,16.26
2023-03-26T10:30:27.299Z,16.29
2023-03-26T10:33:26.686Z,16.30
2023-03-26T10:36:12.612Z,16.37
2023-03-26T10:39:06.908Z,16.39
2023-03-26T10:41:51.732Z,16.41
2023-03-26T10:44:27.534Z,16.42
2023-03-26T10:47:26.684Z,16.45
2023-03-26T10:49:53.258Z,16.45
2023-03-26T10:52:25.427Z,16.46
2023-03-26T10:55:03.958Z,16.55
2023-03-26T10:57:57.688Z,16.53
2023-03-26T11:00:26.489Z,16.57
2023-03-26T11:03:20.638Z,16.58
2023-03-26T11:06:08.934Z,16.60
2023-03-26T11:08:44.569Z,16.61
2023-03-26T11:11:19.913Z,16.61
2023-03-26T11:14:27.976Z,16.65
2023-03-26T11:17:39.805Z,16.69
2023-03-26T11:20:16.786Z,16.71
2023-03-26T11:23:20.389Z,16.71
2023-03-26T11:26:08.806Z,16.71
2023-03-26T11:28:49.662Z,16.72
2023-03-26T11:31:45.046Z,16.75
2023-03-26T11:34:19.831Z,16.76
2023-03-26T11:36:54.088Z,16.79
2023-03-26T11:39:29.459Z,16.79
2023-03-26T11:42:07.433Z,16.86
2023-03-26T11:44:51.412Z,16.84
2023-03-26T11:47:23.484Z,16.82
2023-03-26T11:49:53.379Z,16.88
2023-03-26T11:52:20.647Z,16.87
2023-03-26T11:54:50.527Z,16.88
2023-03-26T11:57:22.895Z,16.93
2023-03-26T11:59:59.257Z,16.92
2023-03-26T12:02:29.874Z,16.92
2023-03-26T12:05:18.569Z,16.99
2023-03-26T12:07:49.545Z,16.92
2023-03-26T12:10:23.980Z,16.94
2023-03-26T12:12:56.691Z,16.98
2023-03-26T12:15:24.996Z,16.99
2023-03-26T12:17:58.267Z,17.05
2023-03-26T12:20:25.418Z,17.03
2023-03-26T12:22:59.527Z,17.00
2023-03-26T12:25:33.524Z,17.05
2023-03-26T12:28:17.332Z,17.03
2023-03-26T12:31:01.306Z,17.03
2023-03-26T12:33:34.248Z,17.04
2023-03-26T12:36:21.648Z,17.10
2023-03-26T12:39:15.950Z,17.14
2023-03-26T12:44:42.801Z,17.14
2023-03-26T12:44:57.295Z,17.15
2023-03-26T12:47:58.515Z,17.15
2023-03-26T12:50:34.708Z,17.15
2023-03-26T12:53:19.535Z,17.18
2023-03-26T12:56:11.122Z,17.19
2023-03-26T12:59:00.178Z,17.23
2023-03-26T13:01:45.744Z,17.21
2023-03-26T13:04:21.841Z,17.23
2023-03-26T13:07:01.812Z,17.22
2023-03-26T13:10:08.789Z,17.23
2023-03-26T13:12:35.644Z,17.23
2023-03-26T13:15:23.083Z,17.25
2023-03-26T13:18:15.926Z,17.27
2023-03-26T13:21:05.294Z,17.29
2023-03-26T13:23:54.372Z,17.31
2023-03-26T13:26:50.387Z,17.32
2023-03-26T13:29:37.244Z,17.28
2023-03-26T13:32:26.496Z,17.31
2023-03-26T13:35:24.544Z,17.32
2023-03-26T13:38:06.054Z,17.25
2023-03-26T13:40:47.508Z,17.35
2023-03-26T13:44:01.610Z,17.32
2023-03-26T13:58:10.914Z,17.34
2023-03-26T14:01:08.034Z,17.33
2023-03-26T14:03:51.970Z,17.38
2023-03-26T14:06:29.852Z,17.40
2023-03-26T14:09:04.902Z,17.36
2023-03-26T14:11:55.286Z,17.37
2023-03-26T14:14:47.288Z,17.34
2023-03-26T14:17:31.210Z,17.33
2023-03-26T14:20:20.080Z,17.37
2023-03-26T14:23:04.851Z,17.38
2023-03-26T14:25:49.188Z,17.39
2023-03-26T14:28:21.809Z,17.40
2023-03-26T14:30:58.275Z,17.37
2023-03-26T14:33:38.562Z,17.41
2023-03-26T14:36:20.649Z,17.40
2023-03-26T14:39:09.465Z,17.40
2023-03-26T14:41:50.393Z,17.37
2023-03-26T14:44:16.988Z,17.39
2023-03-26T14:47:06.276Z,17.38
2023-03-26T14:49:39.015Z,17.42
2023-03-26T14:52:15.795Z,17.38
2023-03-26T14:54:46.684Z,17.44
2023-03-26T14:57:41.127Z,17.43
2023-03-26T15:00:41.410Z,17.42
2023-03-26T15:03:40.005Z,17.37
2023-03-26T15:06:15.564Z,17.40
2023-03-26T15:09:06.872Z,17.40
2023-03-26T15:11:54.450Z,17.39
2023-03-26T15:14:51.097Z,17.38
2023-03-26T15:17:36.783Z,17.46
2023-03-26T15:20:26.704Z,17.37
2023-03-26T15:23:50.413Z,17.38
2023-03-26T15:26:51.067Z,17.40
2023-03-26T15:29:55.833Z,17.40
2023-03-26T15:32:49.661Z,17.42
2023-03-26T15:35:27.393Z,17.39
2023-03-26T15:38:09.645Z,17.40
2023-03-26T15:41:16.811Z,17.40
2023-03-26T15:44:23.272Z,17.35
2023-03-26T15:47:12.914Z,17.37
2023-03-26T15:49:45.613Z,17.39
2023-03-26T15:52:33.596Z,17.38
2023-03-26T15:55:18.850Z,17.37
2023-03-26T15:58:12.273Z,17.41
2023-03-26T16:00:55.242Z,17.40
2023-03-26T16:03:35.876Z,17.41
2023-03-26T16:06:41.410Z,17.39
2023-03-26T16:10:04.980Z,17.41
2023-03-26T16:12:35.767Z,17.42
2023-03-26T16:15:26.496Z,17.46
2023-03-26T16:18:22.403Z,17.44
2023-03-26T16:21:31.198Z,17.44
2023-03-26T16:24:08.151Z,17.46
2023-03-26T16:26:54.388Z,17.47
2023-03-26T16:29:28.082Z,17.46
2023-03-26T16:32:09.835Z,17.46
2023-03-26T16:34:59.422Z,17.45
2023-03-26T16:37:33.699Z,17.48
2023-03-26T16:40:18.680Z,17.47
2023-03-26T16:42:55.867Z,17.50
2023-03-26T16:45:53.212Z,17.48
2023-03-26T16:48:26.565Z,17.47
2023-03-26T16:51:34.746Z,17.54
2023-03-26T16:54:36.190Z,17.49
2023-03-26T16:57:26.071Z,17.50
2023-03-26T17:00:08.184Z,17.50
2023-03-26T17:02:51.972Z,17.56
2023-03-26T17:05:35.485Z,17.51
2023-03-26T17:08:11.984Z,17.52
2023-03-26T17:10:46.449Z,17.52
2023-03-26T17:13:28.231Z,17.55
2023-03-26T17:15:58.142Z,17.54
2023-03-26T17:18:25.696Z,17.56
2023-03-26T17:21:09.466Z,17.51
2023-03-26T17:24:27.535Z,17.56
2023-03-26T17:27:28.284Z,17.57
2023-03-26T17:30:28.546Z,17.53
2023-03-26T17:32:58.598Z,17.52
2023-03-26T17:35:47.705Z,17.53
2023-03-26T17:38:17.133Z,17.53
2023-03-26T17:40:50.953Z,17.57
2023-03-26T17:43:50.927Z,17.59
2023-03-26T17:46:25.735Z,17.53
2023-03-26T17:49:17.968Z,17.53
2023-03-26T17:51:59.559Z,17.52
2023-03-26T17:54:44.004Z,17.49
2023-03-26T17:57:35.152Z,17.49
2023-03-26T18:00:07.477Z,17.49
2023-03-26T18:02:43.384Z,17.45
2023-03-26T18:05:14.512Z,17.46
2023-03-26T18:08:08.256Z,17.45
2023-03-26T18:10:48.820Z,17.47
2023-03-26T18:13:16.045Z,17.46
2023-03-26T18:15:46.079Z,17.52
2023-03-26T18:18:24.763Z,17.45
2023-03-26T18:23:33.664Z,17.41
2023-03-26T18:26:29.790Z,17.43
2023-03-26T18:29:10.606Z,17.40
2023-03-26T18:31:41.926Z,17.42
2023-03-26T18:34:21.203Z,17.40
2023-03-26T18:37:10.990Z,17.40
2023-03-26T18:39:38.625Z,17.39
2023-03-26T18:42:06.591Z,17.39
2023-03-26T18:44:38.921Z,17.36
2023-03-26T18:47:07.358Z,17.36
2023-03-26T18:49:36.556Z,17.32
2023-03-26T18:52:03.527Z,17.36
2023-03-26T18:54:35.442Z,17.36
2023-03-26T18:57:15.002Z,17.32
2023-03-26T18:59:45.254Z,17.37
2023-03-26T19:02:13.968Z,17.35
2023-03-26T19:04:46.090Z,17.31
2023-03-26T19:07:25.043Z,17.28
2023-03-26T19:09:56.309Z,17.26
2023-03-26T19:12:32.575Z,17.25
2023-03-26T19:15:05.347Z,17.23
2023-03-26T19:17:38.593Z,17.15
2023-03-26T19:20:12.671Z,17.10
2023-03-26T19:22:42.308Z,17.11
2023-03-26T19:25:20.274Z,16.99
2023-03-26T19:27:47.431Z,16.95
2023-03-26T19:30:29.380Z,16.87
2023-03-26T19:33:12.675Z,16.85
2023-03-26T19:35:42.127Z,16.78
2023-03-26T19:38:28.250Z,16.75
2023-03-26T19:40:57.765Z,16.71
2023-03-26T19:43:26.292Z,16.69
2023-03-26T19:45:59.702Z,16.69
2023-03-26T19:48:45.292Z,16.65
2023-03-26T19:51:39.353Z,16.61
2023-03-26T19:54:15.874Z,16.59
2023-03-26T19:56:43.522Z,16.57
2023-03-26T19:59:10.494Z,16.52
2023-03-26T20:01:37.858Z,16.50
2023-03-26T20:04:06.771Z,16.48
2023-03-26T20:06:43.721Z,16.49
2023-03-26T20:09:14.135Z,16.47
2023-03-26T20:11:41.314Z,16.44
2023-03-26T20:14:16.774Z,16.43
2023-03-26T20:16:45.201Z,16.40
2023-03-26T20:19:14.310Z,16.36
2023-03-26T20:21:41.730Z,16.34
2023-03-26T20:24:17.404Z,16.33
2023-03-26T20:26:45.587Z,16.30
2023-03-26T20:29:13.413Z,16.29
2023-03-26T20:31:44.049Z,16.27
2023-03-26T20:34:20.430Z,16.24
2023-03-26T20:36:47.794Z,16.21
2023-03-26T20:39:14.574Z,16.18
2023-03-26T20:41:47.193Z,16.16
2023-03-26T20:44:16.850Z,16.15
2023-03-26T20:46:44.846Z,16.14
2023-03-26T20:49:12.099Z,16.14
2023-03-26T20:51:41.976Z,16.11
2023-03-26T20:54:23.313Z,16.08
2023-03-26T20:56:50.850Z,16.05
2023-03-26T20:59:21.824Z,16.04
2023-03-26T21:01:50.005Z,16.01
2023-03-26T21:04:17.537Z,16.00
2023-03-26T21:06:44.718Z,15.97
2023-03-26T21:09:15.283Z,15.94
2023-03-26T21:11:50.690Z,15.95
2023-03-26T21:14:33.540Z,15.92
2023-03-26T21:17:01.358Z,15.89
2023-03-26T21:19:28.523Z,15.86
2023-03-26T21:21:59.468Z,15.85
2023-03-26T21:24:35.227Z,15.80
2023-03-26T21:27:19.877Z,15.81
2023-03-26T21:29:46.850Z,15.78
2023-03-26T21:32:14.750Z,15.76
2023-03-26T21:34:55.671Z,15.72
2023-03-26T21:37:25.222Z,15.70
2023-03-26T21:39:52.436Z,15.70
2023-03-26T21:42:19.552Z,15.67
2023-03-26T21:44:46.822Z,15.68
2023-03-26T21:47:14.068Z,15.65
2023-03-26T21:49:41.241Z,15.63
2023-03-26T21:52:14.592Z,15.64
2023-03-26T21:54:43.126Z,15.61
2023-03-26T21:57:36.253Z,15.59
2023-03-26T22:00:15.034Z,15.59
2023-03-26T22:03:00.943Z,15.59
2023-03-26T22:05:55.097Z,15.54
2023-03-26T22:08:25.428Z,15.52
2023-03-26T22:10:52.150Z,15.51
2023-03-26T22:13:18.929Z,15.49
2023-03-26T22:15:46.206Z,15.47
2023-03-26T22:18:14.223Z,15.45
2023-03-26T22:20:43.329Z,15.45
2023-03-26T22:23:10.853Z,15.43
2023-03-26T22:25:39.785Z,15.43
2023-03-26T22:28:06.448Z,15.39
2023-03-26T22:30:33.663Z,15.39
2023-03-26T22:33:00.376Z,15.36
2023-03-26T22:35:27.150Z,15.33
2023-03-26T22:38:00.987Z,15.33
2023-03-26T22:40:28.334Z,15.32
2023-03-26T22:42:55.784Z,15.29
2023-03-26T22:45:26.155Z,15.31
2023-03-26T22:47:52.774Z,15.29
2023-03-26T22:50:31.240Z,15.27
2023-03-26T22:52:57.935Z,15.25
2023-03-26T22:55:28.987Z,15.28
2023-03-26T22:57:57.257Z,15.25
2023-03-26T23:00:26.409Z,15.21
2023-03-26T23:02:55.989Z,15.16
2023-03-26T23:05:22.773Z,15.16
2023-03-26T23:07:49.482Z,15.17
2023-03-26T23:10:16.384Z,15.14
2023-03-26T23:12:43.149Z,15.14
2023-03-26T23:15:10.674Z,15.12
2023-03-26T23:17:38.153Z,15.10
2023-03-26T23:20:15.505Z,15.08
2023-03-26T23:22:43.417Z,15.08
2023-03-26T23:25:11.617Z,15.06
2023-03-26T23:27:40.069Z,15.05
2023-03-26T23:30:07.469Z,15.04
2023-03-26T23:32:38.322Z,15.04
2023-03-26T23:35:06.126Z,15.03
2023-03-26T23:37:35.105Z,15.01
2023-03-26T23:40:02.145Z,15.00
2023-03-26T23:42:29.433Z,14.99
2023-03-26T23:44:57.233Z,14.98
2023-03-26T23:47:24.233Z,14.95
2023-03-26T23:49:51.007Z,14.93
2023-03-26T23:52:17.818Z,14.93
2023-03-26T23:54:45.170Z,14.91
2023-03-26T23:57:11.994Z,14.92
2023-03-26T23:59:41.401Z,14.91
